sensor_id;sensor_type;location;lat;lon;timestamp;pressure;altitude;pressure_sealevel;temperature;humidity
32251;BME280;41295;48.518;9.206;2023-12-20T00:00:22;97287.56;;;5.15;75.29
32251;BME280;41295;48.518;9.206;2023-12-20T00:02:24;97285.84;;;5.16;75.44
32251;BME280;41295;48.518;9.206;2023-12-20T00:04:28;97279.81;;;5.15;75.44
32251;BME280;41295;48.518;9.206;2023-12-20T00:06:29;97264.28;;;5.15;75.59
32251;BME280;41295;48.518;9.206;2023-12-20T00:08:32;97258.25;;;5.15;76.06
32251;BME280;41295;48.518;9.206;2023-12-20T00:10:35;97250.47;;;5.16;76.42
32251;BME280;41295;48.518;9.206;2023-12-20T00:12:37;97250.41;;;5.21;76.23
32251;BME280;41295;48.518;9.206;2023-12-20T00:14:40;97250.22;;;5.34;75.81
32251;BME280;41295;48.518;9.206;2023-12-20T00:16:42;97246.69;;;5.36;75.19
32251;BME280;41295;48.518;9.206;2023-12-20T00:18:45;97243.31;;;5.33;75.13
32251;BME280;41295;48.518;9.206;2023-12-20T00:20:48;97233.91;;;5.30;75.46
32251;BME280;41295;48.518;9.206;2023-12-20T00:22:50;97242.41;;;5.37;75.53
32251;BME280;41295;48.518;9.206;2023-12-20T00:24:53;97236.34;;;5.39;75.61
32251;BME280;41295;48.518;9.206;2023-12-20T00:26:55;97238.06;;;5.39;75.60
32251;BME280;41295;48.518;9.206;2023-12-20T00:28:57;97228.56;;;5.38;75.78
32251;BME280;41295;48.518;9.206;2023-12-20T00:30:59;97227.69;;;5.40;75.89
32251;BME280;41295;48.518;9.206;2023-12-20T00:33:02;97219.03;;;5.41;75.70
32251;BME280;41295;48.518;9.206;2023-12-20T00:35:04;97214.66;;;5.45;75.82
32251;BME280;41295;48.518;9.206;2023-12-20T00:37:08;97209.47;;;5.45;75.70
32251;BME280;41295;48.518;9.206;2023-12-20T00:39:10;97210.34;;;5.46;75.81
32251;BME280;41295;48.518;9.206;2023-12-20T00:41:13;97207.78;;;5.44;76.00
32251;BME280;41295;48.518;9.206;2023-12-20T00:43:15;97201.78;;;5.42;76.13
32251;BME280;41295;48.518;9.206;2023-12-20T00:45:18;97212.16;;;5.40;76.35
32251;BME280;41295;48.518;9.206;2023-12-20T00:47:21;97206.94;;;5.44;76.34
32251;BME280;41295;48.518;9.206;2023-12-20T00:49:23;97204.31;;;5.45;76.53
32251;BME280;41295;48.518;9.206;2023-12-20T00:51:25;97198.25;;;5.48;76.61
32251;BME280;41295;48.518;9.206;2023-12-20T00:53:29;97192.13;;;5.53;76.33
32251;BME280;41295;48.518;9.206;2023-12-20T00:55:31;97194.72;;;5.52;76.31
32251;BME280;41295;48.518;9.206;2023-12-20T00:57:32;97187.81;;;5.52;76.45
32251;BME280;41295;48.518;9.206;2023-12-20T00:59:35;97199.06;;;5.50;76.51
32251;BME280;41295;48.518;9.206;2023-12-20T01:01:38;97203.97;;;5.64;76.27
32251;BME280;41295;48.518;9.206;2023-12-20T01:03:41;97203.88;;;5.69;76.09
32251;BME280;41295;48.518;9.206;2023-12-20T01:05:43;97204.03;;;5.62;76.09
32251;BME280;41295;48.518;9.206;2023-12-20T01:07:46;97205.75;;;5.62;76.06
32251;BME280;41295;48.518;9.206;2023-12-20T01:09:50;97209.56;;;5.88;75.35
32251;BME280;41295;48.518;9.206;2023-12-20T01:11:52;97213.94;;;5.86;74.91
32251;BME280;41295;48.518;9.206;2023-12-20T01:13:55;97215.59;;;5.88;75.11
32251;BME280;41295;48.518;9.206;2023-12-20T01:15:57;97225.16;;;5.85;74.93
32251;BME280;41295;48.518;9.206;2023-12-20T01:17:59;97218.31;;;5.82;75.27
32251;BME280;41295;48.518;9.206;2023-12-20T01:20:02;97225.03;;;5.91;75.12
32251;BME280;41295;48.518;9.206;2023-12-20T01:22:04;97226.78;;;5.90;75.06
32251;BME280;41295;48.518;9.206;2023-12-20T01:24:07;97219.91;;;5.89;75.18
32251;BME280;41295;48.518;9.206;2023-12-20T01:26:10;97227.47;;;5.99;75.37
32251;BME280;41295;48.518;9.206;2023-12-20T01:28:12;97236.41;;;5.84;75.48
32251;BME280;41295;48.518;9.206;2023-12-20T01:30:15;97235.53;;;5.83;76.35
32251;BME280;41295;48.518;9.206;2023-12-20T01:32:18;97238.25;;;5.77;76.64
32251;BME280;41295;48.518;9.206;2023-12-20T01:34:20;97233.97;;;5.74;77.08
32251;BME280;41295;48.518;9.206;2023-12-20T01:36:23;97240.91;;;5.72;77.37
32251;BME280;41295;48.518;9.206;2023-12-20T01:38:25;97243.44;;;5.75;77.58
32251;BME280;41295;48.518;9.206;2023-12-20T01:40:28;97249.59;;;5.70;77.87
32251;BME280;41295;48.518;9.206;2023-12-20T01:42:32;97243.59;;;5.68;78.17
32251;BME280;41295;48.518;9.206;2023-12-20T01:44:34;97250.69;;;5.56;79.47
32251;BME280;41295;48.518;9.206;2023-12-20T01:46:36;97254.97;;;5.59;79.59
32251;BME280;41295;48.518;9.206;2023-12-20T01:48:39;97256.53;;;5.68;79.23
32251;BME280;41295;48.518;9.206;2023-12-20T01:50:41;97255.78;;;5.59;80.21
32251;BME280;41295;48.518;9.206;2023-12-20T01:52:45;97255.78;;;5.61;80.54
32251;BME280;41295;48.518;9.206;2023-12-20T01:54:46;97255.84;;;5.56;80.88
32251;BME280;41295;48.518;9.206;2023-12-20T01:56:49;97253.31;;;5.53;81.28
32251;BME280;41295;48.518;9.206;2023-12-20T01:58:54;97243.88;;;5.52;81.85
32251;BME280;41295;48.518;9.206;2023-12-20T02:00:57;97248.09;;;5.56;81.77
32251;BME280;41295;48.518;9.206;2023-12-20T02:03:00;97248.19;;;5.51;82.29
32251;BME280;41295;48.518;9.206;2023-12-20T02:05:03;97245.63;;;5.50;82.73
32251;BME280;41295;48.518;9.206;2023-12-20T02:07:06;97237.03;;;5.48;83.07
32251;BME280;41295;48.518;9.206;2023-12-20T02:09:09;97239.59;;;5.49;83.38
32251;BME280;41295;48.518;9.206;2023-12-20T02:11:12;97227.59;;;5.45;84.09
32251;BME280;41295;48.518;9.206;2023-12-20T02:13:15;97226.75;;;5.45;84.20
32251;BME280;41295;48.518;9.206;2023-12-20T02:15:18;97228.53;;;5.41;84.97
32251;BME280;41295;48.518;9.206;2023-12-20T02:17:20;97227.75;;;5.37;86.17
32251;BME280;41295;48.518;9.206;2023-12-20T02:19:22;97219.13;;;5.37;86.55
32251;BME280;41295;48.518;9.206;2023-12-20T02:21:31;97208.75;;;5.38;86.39
32251;BME280;41295;48.518;9.206;2023-12-20T02:23:36;97213.03;;;5.41;86.40
32251;BME280;41295;48.518;9.206;2023-12-20T02:25:39;97225.19;;;5.36;87.24
32251;BME280;41295;48.518;9.206;2023-12-20T02:27:41;97219.09;;;5.38;87.32
32251;BME280;41295;48.518;9.206;2023-12-20T02:29:44;97212.22;;;5.37;87.65
32251;BME280;41295;48.518;9.206;2023-12-20T02:31:49;97213.06;;;5.38;87.86
32251;BME280;41295;48.518;9.206;2023-12-20T02:33:50;97210.34;;;5.46;87.92
32251;BME280;41295;48.518;9.206;2023-12-20T02:35:53;97208.69;;;5.43;87.84
32251;BME280;41295;48.518;9.206;2023-12-20T02:37:56;97210.47;;;5.39;88.01
32251;BME280;41295;48.518;9.206;2023-12-20T02:39:59;97214.78;;;5.39;88.46
32251;BME280;41295;48.518;9.206;2023-12-20T02:42:02;97216.47;;;5.40;88.76
32251;BME280;41295;48.518;9.206;2023-12-20T02:44:04;97211.34;;;5.38;88.83
32251;BME280;41295;48.518;9.206;2023-12-20T02:46:07;97220.88;;;5.35;89.22
32251;BME280;41295;48.518;9.206;2023-12-20T02:48:09;97214.00;;;5.34;89.40
32251;BME280;41295;48.518;9.206;2023-12-20T02:50:11;97209.63;;;5.37;88.81
32251;BME280;41295;48.518;9.206;2023-12-20T02:52:14;97213.09;;;5.36;89.31
32251;BME280;41295;48.518;9.206;2023-12-20T02:54:18;97214.84;;;5.36;89.34
32251;BME280;41295;48.518;9.206;2023-12-20T02:56:19;97220.81;;;5.38;89.41
32251;BME280;41295;48.518;9.206;2023-12-20T02:58:22;97221.72;;;5.37;89.46
32251;BME280;41295;48.518;9.206;2023-12-20T03:00:24;97218.41;;;5.28;89.71
32251;BME280;41295;48.518;9.206;2023-12-20T03:02:27;97225.22;;;5.33;90.06
32251;BME280;41295;48.518;9.206;2023-12-20T03:04:29;97218.41;;;5.28;90.40
32251;BME280;41295;48.518;9.206;2023-12-20T03:06:32;97227.78;;;5.36;90.29
32251;BME280;41295;48.518;9.206;2023-12-20T03:08:34;97227.78;;;5.36;89.19
32251;BME280;41295;48.518;9.206;2023-12-20T03:10:38;97231.22;;;5.35;89.48
32251;BME280;41295;48.518;9.206;2023-12-20T03:12:41;97233.75;;;5.38;89.54
32251;BME280;41295;48.518;9.206;2023-12-20T03:14:43;97221.72;;;5.37;89.88
32251;BME280;41295;48.518;9.206;2023-12-20T03:16:49;97230.28;;;5.39;89.82
32251;BME280;41295;48.518;9.206;2023-12-20T03:18:52;97228.50;;;5.43;89.01
32251;BME280;41295;48.518;9.206;2023-12-20T03:20:53;97231.16;;;5.38;89.16
32251;BME280;41295;48.518;9.206;2023-12-20T03:22:56;97234.66;;;5.35;89.45
32251;BME280;41295;48.518;9.206;2023-12-20T03:24:58;97228.69;;;5.32;90.10
32251;BME280;41295;48.518;9.206;2023-12-20T03:27:02;97233.00;;;5.31;90.44
32251;BME280;41295;48.518;9.206;2023-12-20T03:29:05;97242.50;;;5.31;90.72
32251;BME280;41295;48.518;9.206;2023-12-20T03:31:06;97245.06;;;5.32;90.86
32251;BME280;41295;48.518;9.206;2023-12-20T03:33:09;97250.25;;;5.32;91.02
32251;BME280;41295;48.518;9.206;2023-12-20T03:35:10;97245.00;;;5.35;90.03
32251;BME280;41295;48.518;9.206;2023-12-20T03:37:13;97252.81;;;5.34;90.50
32251;BME280;41295;48.518;9.206;2023-12-20T03:39:16;97249.38;;;5.32;90.54
32251;BME280;41295;48.518;9.206;2023-12-20T03:41:18;97256.28;;;5.31;90.82
32251;BME280;41295;48.518;9.206;2023-12-20T03:43:22;97254.56;;;5.32;90.77
32251;BME280;41295;48.518;9.206;2023-12-20T03:45:24;97255.41;;;5.32;91.25
32251;BME280;41295;48.518;9.206;2023-12-20T03:47:26;97259.72;;;5.32;91.50
32251;BME280;41295;48.518;9.206;2023-12-20T03:49:29;97258.03;;;5.31;91.59
32251;BME280;41295;48.518;9.206;2023-12-20T03:51:31;97262.31;;;5.32;91.87
32251;BME280;41295;48.518;9.206;2023-12-20T03:53:34;97270.13;;;5.28;91.85
32251;BME280;41295;48.518;9.206;2023-12-20T03:55:36;97273.38;;;5.40;91.01
32251;BME280;41295;48.518;9.206;2023-12-20T03:57:39;97271.66;;;5.39;91.06
32251;BME280;41295;48.518;9.206;2023-12-20T03:59:41;97266.56;;;5.36;91.32
32251;BME280;41295;48.518;9.206;2023-12-20T04:01:44;97279.53;;;5.34;91.56
32251;BME280;41295;48.518;9.206;2023-12-20T04:03:47;97269.19;;;5.34;91.56
32251;BME280;41295;48.518;9.206;2023-12-20T04:05:49;97269.19;;;5.34;91.98
32251;BME280;41295;48.518;9.206;2023-12-20T04:07:51;97270.06;;;5.32;92.20
32251;BME280;41295;48.518;9.206;2023-12-20T04:09:53;97277.75;;;5.36;92.28
32251;BME280;41295;48.518;9.206;2023-12-20T04:11:56;97272.63;;;5.33;92.23
32251;BME280;41295;48.518;9.206;2023-12-20T04:13:58;97280.41;;;5.32;92.70
32251;BME280;41295;48.518;9.206;2023-12-20T04:16:03;97278.69;;;5.32;92.50
32251;BME280;41295;48.518;9.206;2023-12-20T04:18:06;97275.28;;;5.30;92.85
32251;BME280;41295;48.518;9.206;2023-12-20T04:20:09;97279.53;;;5.31;92.98
32251;BME280;41295;48.518;9.206;2023-12-20T04:22:10;97277.75;;;5.35;91.97
32251;BME280;41295;48.518;9.206;2023-12-20T04:24:13;97289.00;;;5.34;92.33
32251;BME280;41295;48.518;9.206;2023-12-20T04:26:15;97282.94;;;5.35;92.33
32251;BME280;41295;48.518;9.206;2023-12-20T04:28:18;97286.47;;;5.31;92.45
32251;BME280;41295;48.518;9.206;2023-12-20T04:30:21;97293.34;;;5.32;92.28
32251;BME280;41295;48.518;9.206;2023-12-20T04:32:24;97291.66;;;5.31;92.46
32251;BME280;41295;48.518;9.206;2023-12-20T04:34:26;97295.03;;;5.33;92.48
32251;BME280;41295;48.518;9.206;2023-12-20T04:36:29;97293.31;;;5.33;92.68
32251;BME280;41295;48.518;9.206;2023-12-20T04:38:31;97291.63;;;5.32;92.66
32251;BME280;41295;48.518;9.206;2023-12-20T04:40:34;97285.53;;;5.35;92.76
32251;BME280;41295;48.518;9.206;2023-12-20T04:42:36;97282.09;;;5.33;92.95
32251;BME280;41295;48.518;9.206;2023-12-20T04:44:39;97286.50;;;5.27;92.81
32251;BME280;41295;48.518;9.206;2023-12-20T04:46:41;97281.41;;;5.23;92.91
32251;BME280;41295;48.518;9.206;2023-12-20T04:48:45;97281.38;;;5.24;93.02
32251;BME280;41295;48.518;9.206;2023-12-20T04:50:48;97287.34;;;5.28;93.29
32251;BME280;41295;48.518;9.206;2023-12-20T04:52:50;97287.34;;;5.28;93.19
32251;BME280;41295;48.518;9.206;2023-12-20T04:54:53;97293.41;;;5.27;93.41
32251;BME280;41295;48.518;9.206;2023-12-20T04:56:55;97294.22;;;5.31;93.23
32251;BME280;41295;48.518;9.206;2023-12-20T04:58:58;97298.59;;;5.27;93.17
32251;BME280;41295;48.518;9.206;2023-12-20T05:00:59;97295.09;;;5.29;92.72
32251;BME280;41295;48.518;9.206;2023-12-20T05:03:02;97301.13;;;5.30;93.14
32251;BME280;41295;48.518;9.206;2023-12-20T05:05:06;97304.56;;;5.31;92.75
32251;BME280;41295;48.518;9.206;2023-12-20T05:07:09;97306.25;;;5.33;92.65
32251;BME280;41295;48.518;9.206;2023-12-20T05:09:12;97311.44;;;5.32;92.60
32251;BME280;41295;48.518;9.206;2023-12-20T05:11:14;97314.88;;;5.32;92.62
32251;BME280;41295;48.518;9.206;2023-12-20T05:13:17;97312.25;;;5.35;92.17
32251;BME280;41295;48.518;9.206;2023-12-20T05:15:19;97316.41;;;5.44;91.27
32251;BME280;41295;48.518;9.206;2023-12-20T05:17:22;97321.72;;;5.35;91.14
32251;BME280;41295;48.518;9.206;2023-12-20T05:19:23;97324.41;;;5.30;91.63
32251;BME280;41295;48.518;9.206;2023-12-20T05:21:27;97328.72;;;5.28;91.18
32251;BME280;41295;48.518;9.206;2023-12-20T05:23:32;97321.00;;;5.26;91.42
32251;BME280;41295;48.518;9.206;2023-12-20T05:25:33;97322.72;;;5.26;91.86
32251;BME280;41295;48.518;9.206;2023-12-20T05:27:36;97326.19;;;5.25;92.21
32251;BME280;41295;48.518;9.206;2023-12-20T05:29:38;97328.75;;;5.26;92.08
32251;BME280;41295;48.518;9.206;2023-12-20T05:31:40;97325.25;;;5.29;91.87
32251;BME280;41295;48.518;9.206;2023-12-20T05:33:42;97335.59;;;5.29;91.45
32251;BME280;41295;48.518;9.206;2023-12-20T05:35:45;97347.72;;;5.25;90.78
32251;BME280;41295;48.518;9.206;2023-12-20T05:37:49;97356.41;;;5.21;91.35
32251;BME280;41295;48.518;9.206;2023-12-20T05:39:51;97350.44;;;5.17;91.37
32251;BME280;41295;48.518;9.206;2023-12-20T05:41:54;97348.72;;;5.18;91.30
32251;BME280;41295;48.518;9.206;2023-12-20T05:43:56;97358.16;;;5.19;91.01
32251;BME280;41295;48.518;9.206;2023-12-20T05:45:59;97365.97;;;5.16;90.73
32251;BME280;41295;48.518;9.206;2023-12-20T05:48:01;97357.34;;;5.15;90.98
32251;BME280;41295;48.518;9.206;2023-12-20T05:50:04;97360.81;;;5.14;90.88
32251;BME280;41295;48.518;9.206;2023-12-20T05:52:07;97357.31;;;5.18;90.94
32251;BME280;41295;48.518;9.206;2023-12-20T05:54:11;97361.63;;;5.16;90.90
32251;BME280;41295;48.518;9.206;2023-12-20T05:56:13;97359.06;;;5.15;90.50
32251;BME280;41295;48.518;9.206;2023-12-20T05:58:16;97354.84;;;5.11;91.08
32251;BME280;41295;48.518;9.206;2023-12-20T06:00:18;97359.19;;;5.09;91.31
32251;BME280;41295;48.518;9.206;2023-12-20T06:02:20;97360.84;;;5.11;91.26
32251;BME280;41295;48.518;9.206;2023-12-20T06:04:22;97364.28;;;5.13;91.18
32251;BME280;41295;48.518;9.206;2023-12-20T06:06:25;97371.97;;;5.20;90.57
32251;BME280;41295;48.518;9.206;2023-12-20T06:08:26;97379.75;;;5.18;90.71
32251;BME280;41295;48.518;9.206;2023-12-20T06:10:30;97377.13;;;5.20;90.38
32251;BME280;41295;48.518;9.206;2023-12-20T06:12:33;97380.63;;;5.15;90.38
32251;BME280;41295;48.518;9.206;2023-12-20T06:14:37;97386.66;;;5.16;90.64
32251;BME280;41295;48.518;9.206;2023-12-20T06:16:39;97385.72;;;5.20;90.60
32251;BME280;41295;48.518;9.206;2023-12-20T06:18:42;97390.81;;;5.26;89.92
32251;BME280;41295;48.518;9.206;2023-12-20T06:20:45;97392.63;;;5.21;89.81
32251;BME280;41295;48.518;9.206;2023-12-20T06:22:46;97393.50;;;5.18;90.06
32251;BME280;41295;48.518;9.206;2023-12-20T06:24:49;97395.22;;;5.20;90.48
32251;BME280;41295;48.518;9.206;2023-12-20T06:26:53;97394.34;;;5.19;90.64
32251;BME280;41295;48.518;9.206;2023-12-20T06:28:55;97396.97;;;5.17;90.98
32251;BME280;41295;48.518;9.206;2023-12-20T06:30:58;97391.81;;;5.17;90.94
32251;BME280;41295;48.518;9.206;2023-12-20T06:33:02;97391.78;;;5.19;91.04
32251;BME280;41295;48.518;9.206;2023-12-20T06:35:05;97396.09;;;5.17;91.21
32251;BME280;41295;48.518;9.206;2023-12-20T06:37:08;97389.22;;;5.17;91.40
32251;BME280;41295;48.518;9.206;2023-12-20T06:39:10;97398.63;;;5.20;91.56
32251;BME280;41295;48.518;9.206;2023-12-20T06:41:13;97401.22;;;5.22;91.50
32251;BME280;41295;48.518;9.206;2023-12-20T06:43:18;97404.69;;;5.21;91.48
32251;BME280;41295;48.518;9.206;2023-12-20T06:45:40;97397.78;;;5.21;91.67
32251;BME280;41295;48.518;9.206;2023-12-20T06:47:43;97401.28;;;5.17;91.86
32251;BME280;41295;48.518;9.206;2023-12-20T06:49:46;97391.72;;;5.22;91.62
32251;BME280;41295;48.518;9.206;2023-12-20T06:51:48;97392.63;;;5.21;91.59
32251;BME280;41295;48.518;9.206;2023-12-20T06:53:51;97391.69;;;5.24;91.36
32251;BME280;41295;48.518;9.206;2023-12-20T06:55:53;97400.34;;;5.23;91.44
32251;BME280;41295;48.518;9.206;2023-12-20T06:57:57;97408.09;;;5.23;90.88
32251;BME280;41295;48.518;9.206;2023-12-20T07:00:01;97415.84;;;5.23;91.23
32251;BME280;41295;48.518;9.206;2023-12-20T07:02:04;97415.00;;;5.22;91.39
32251;BME280;41295;48.518;9.206;2023-12-20T07:04:06;97414.91;;;5.28;90.82
32251;BME280;41295;48.518;9.206;2023-12-20T07:06:09;97417.53;;;5.27;90.84
32251;BME280;41295;48.518;9.206;2023-12-20T07:08:11;97422.72;;;5.27;90.83
32251;BME280;41295;48.518;9.206;2023-12-20T07:10:15;97421.81;;;5.28;90.69
32251;BME280;41295;48.518;9.206;2023-12-20T07:12:17;97413.94;;;5.37;90.03
32251;BME280;41295;48.518;9.206;2023-12-20T07:14:20;97424.34;;;5.31;90.07
32251;BME280;41295;48.518;9.206;2023-12-20T07:16:24;97430.44;;;5.28;90.01
32251;BME280;41295;48.518;9.206;2023-12-20T07:18:27;97433.91;;;5.26;89.98
32251;BME280;41295;48.518;9.206;2023-12-20T07:20:28;97439.03;;;5.29;90.28
32251;BME280;41295;48.518;9.206;2023-12-20T07:22:31;97428.75;;;5.24;90.31
32251;BME280;41295;48.518;9.206;2023-12-20T07:24:34;97433.91;;;5.26;90.53
32251;BME280;41295;48.518;9.206;2023-12-20T07:26:35;97444.22;;;5.31;90.47
32251;BME280;41295;48.518;9.206;2023-12-20T07:28:39;97441.63;;;5.31;90.00
32251;BME280;41295;48.518;9.206;2023-12-20T07:30:42;97438.13;;;5.33;89.62
32251;BME280;41295;48.518;9.206;2023-12-20T07:32:46;97445.91;;;5.32;89.80
32251;BME280;41295;48.518;9.206;2023-12-20T07:34:48;97448.41;;;5.39;89.45
32251;BME280;41295;48.518;9.206;2023-12-20T07:36:51;97452.78;;;5.34;89.64
32251;BME280;41295;48.518;9.206;2023-12-20T07:38:54;97463.94;;;5.35;89.52
32251;BME280;41295;48.518;9.206;2023-12-20T07:40:56;97472.63;;;5.32;89.74
32251;BME280;41295;48.518;9.206;2023-12-20T07:42:59;97465.75;;;5.29;89.41
32251;BME280;41295;48.518;9.206;2023-12-20T07:45:01;97466.63;;;5.28;89.67
32251;BME280;41295;48.518;9.206;2023-12-20T07:47:04;97465.78;;;5.28;89.76
32251;BME280;41295;48.518;9.206;2023-12-20T07:49:08;97464.88;;;5.29;90.15
32251;BME280;41295;48.518;9.206;2023-12-20T07:51:11;97469.19;;;5.32;90.29
32251;BME280;41295;48.518;9.206;2023-12-20T07:53:14;97473.47;;;5.31;89.63
32251;BME280;41295;48.518;9.206;2023-12-20T07:55:16;97479.53;;;5.32;89.46
32251;BME280;41295;48.518;9.206;2023-12-20T07:57:19;97468.31;;;5.31;89.72
32251;BME280;41295;48.518;9.206;2023-12-20T07:59:21;97482.94;;;5.34;89.65
32251;BME280;41295;48.518;9.206;2023-12-20T08:01:33;97475.84;;;5.50;88.48
32251;BME280;41295;48.518;9.206;2023-12-20T08:03:36;97482.66;;;5.56;87.67
32251;BME280;41295;48.518;9.206;2023-12-20T08:05:40;97480.03;;;5.59;87.15
32251;BME280;41295;48.518;9.206;2023-12-20T08:07:42;97476.66;;;5.53;87.24
32251;BME280;41295;48.518;9.206;2023-12-20T08:09:45;97481.75;;;5.58;87.46
32251;BME280;41295;48.518;9.206;2023-12-20T08:11:47;97484.44;;;5.52;88.20
32251;BME280;41295;48.518;9.206;2023-12-20T08:13:49;97490.41;;;5.57;88.47
32251;BME280;41295;48.518;9.206;2023-12-20T08:15:51;97481.81;;;5.53;88.03
32251;BME280;41295;48.518;9.206;2023-12-20T08:17:53;97484.47;;;5.47;88.12
32251;BME280;41295;48.518;9.206;2023-12-20T08:19:56;97492.22;;;5.49;88.48
32251;BME280;41295;48.518;9.206;2023-12-20T08:22:00;97492.22;;;5.47;88.98
32251;BME280;41295;48.518;9.206;2023-12-20T08:24:03;97486.22;;;5.48;88.34
32251;BME280;41295;48.518;9.206;2023-12-20T08:26:05;97487.84;;;5.52;88.39
32251;BME280;41295;48.518;9.206;2023-12-20T08:28:08;97485.19;;;5.59;87.27
32251;BME280;41295;48.518;9.206;2023-12-20T08:30:10;97480.78;;;5.65;87.43
32251;BME280;41295;48.518;9.206;2023-12-20T08:32:13;97479.91;;;5.65;87.34
32251;BME280;41295;48.518;9.206;2023-12-20T08:34:16;97487.75;;;5.60;87.10
32251;BME280;41295;48.518;9.206;2023-12-20T08:36:19;97493.78;;;5.61;87.24
32251;BME280;41295;48.518;9.206;2023-12-20T08:38:24;97494.50;;;5.71;86.95
32251;BME280;41295;48.518;9.206;2023-12-20T08:40:26;97488.50;;;5.69;86.94
32251;BME280;41295;48.518;9.206;2023-12-20T08:42:29;97490.91;;;5.81;86.24
32251;BME280;41295;48.518;9.206;2023-12-20T08:44:32;97487.44;;;5.82;86.35
32251;BME280;41295;48.518;9.206;2023-12-20T08:46:35;97491.66;;;5.89;85.96
32251;BME280;41295;48.518;9.206;2023-12-20T08:48:37;97482.91;;;5.95;87.04
32251;BME280;41295;48.518;9.206;2023-12-20T08:50:39;97487.09;;;6.04;85.80
32251;BME280;41295;48.518;9.206;2023-12-20T08:52:42;97498.25;;;6.09;85.14
32251;BME280;41295;48.518;9.206;2023-12-20T08:54:46;97500.13;;;5.99;85.65
32251;BME280;41295;48.518;9.206;2023-12-20T08:56:48;97505.34;;;5.96;85.89
32251;BME280;41295;48.518;9.206;2023-12-20T08:58:51;97504.50;;;5.96;86.61
32251;BME280;41295;48.518;9.206;2023-12-20T09:00:53;97506.16;;;6.00;86.12
32251;BME280;41295;48.518;9.206;2023-12-20T09:02:56;97514.94;;;5.91;85.68
32251;BME280;41295;48.518;9.206;2023-12-20T09:04:58;97514.75;;;6.04;85.98
32251;BME280;41295;48.518;9.206;2023-12-20T09:07:01;97512.16;;;6.05;85.85
32251;BME280;41295;48.518;9.206;2023-12-20T09:09:04;97522.50;;;6.04;85.61
32251;BME280;41295;48.518;9.206;2023-12-20T09:11:08;97516.41;;;6.08;86.00
32251;BME280;41295;48.518;9.206;2023-12-20T09:13:11;97519.00;;;6.08;85.87
32251;BME280;41295;48.518;9.206;2023-12-20T09:15:14;97519.03;;;6.05;86.24
32251;BME280;41295;48.518;9.206;2023-12-20T09:17:17;97518.16;;;6.07;86.98
32251;BME280;41295;48.518;9.206;2023-12-20T09:19:20;97522.59;;;5.97;85.73
32251;BME280;41295;48.518;9.206;2023-12-20T09:21:22;97519.09;;;6.01;85.46
32251;BME280;41295;48.518;9.206;2023-12-20T09:23:25;97528.03;;;5.78;85.58
32251;BME280;41295;48.518;9.206;2023-12-20T09:25:27;97518.56;;;5.77;86.63
32251;BME280;41295;48.518;9.206;2023-12-20T09:27:32;97520.47;;;5.63;87.56
32251;BME280;41295;48.518;9.206;2023-12-20T09:29:35;97529.19;;;5.57;88.37
32251;BME280;41295;48.518;9.206;2023-12-20T09:31:37;97527.53;;;5.51;88.17
32251;BME280;41295;48.518;9.206;2023-12-20T09:33:39;97528.25;;;5.61;84.68
32251;BME280;41295;48.518;9.206;2023-12-20T09:35:42;97522.47;;;5.44;86.55
32251;BME280;41295;48.518;9.206;2023-12-20T09:37:43;97529.19;;;5.59;86.13
32251;BME280;41295;48.518;9.206;2023-12-20T09:39:48;97526.72;;;5.48;85.91
32251;BME280;41295;48.518;9.206;2023-12-20T09:41:51;97524.97;;;5.51;86.79
32251;BME280;41295;48.518;9.206;2023-12-20T09:43:59;97532.00;;;5.40;85.78
32251;BME280;41295;48.518;9.206;2023-12-20T09:46:05;97525.00;;;5.48;86.25
32251;BME280;41295;48.518;9.206;2023-12-20T09:48:08;97526.63;;;5.56;86.41
32251;BME280;41295;48.518;9.206;2023-12-20T09:50:13;97530.09;;;5.54;85.77
32251;BME280;41295;48.518;9.206;2023-12-20T09:52:15;97532.69;;;5.53;84.56
32251;BME280;41295;48.518;9.206;2023-12-20T09:54:18;97535.19;;;5.59;82.90
32251;BME280;41295;48.518;9.206;2023-12-20T09:56:20;97541.50;;;5.39;81.24
32251;BME280;41295;48.518;9.206;2023-12-20T09:58:24;97542.41;;;5.34;80.86
32251;BME280;41295;48.518;9.206;2023-12-20T10:00:27;97542.47;;;5.29;77.77
32251;BME280;41295;48.518;9.206;2023-12-20T10:02:30;97544.31;;;5.19;78.18
32251;BME280;41295;48.518;9.206;2023-12-20T10:04:34;97544.97;;;5.37;75.20
32251;BME280;41295;48.518;9.206;2023-12-20T10:06:37;97549.34;;;5.32;76.24
32251;BME280;41295;48.518;9.206;2023-12-20T10:08:39;97539.75;;;5.40;76.55
32251;BME280;41295;48.518;9.206;2023-12-20T10:10:42;97535.41;;;5.42;76.15
32251;BME280;41295;48.518;9.206;2023-12-20T10:13:00;97531.16;;;5.39;75.75
32251;BME280;41295;48.518;9.206;2023-12-20T10:15:03;97534.56;;;5.43;76.58
32251;BME280;41295;48.518;9.206;2023-12-20T10:17:08;97527.78;;;5.31;75.85
32251;BME280;41295;48.518;9.206;2023-12-20T10:19:11;97524.25;;;5.38;74.31
32251;BME280;41295;48.518;9.206;2023-12-20T10:21:13;97536.41;;;5.32;74.68
32251;BME280;41295;48.518;9.206;2023-12-20T10:23:16;97529.53;;;5.29;75.34
32251;BME280;41295;48.518;9.206;2023-12-20T10:25:19;97525.31;;;5.20;75.97
32251;BME280;41295;48.518;9.206;2023-12-20T10:27:22;97527.84;;;5.26;75.43
32251;BME280;41295;48.518;9.206;2023-12-20T10:29:24;97527.81;;;5.29;74.77
32251;BME280;41295;48.518;9.206;2023-12-20T10:31:26;97523.53;;;5.28;75.66
32251;BME280;41295;48.518;9.206;2023-12-20T10:33:31;97517.47;;;5.29;76.00
32251;BME280;41295;48.518;9.206;2023-12-20T10:35:35;97511.47;;;5.26;76.25
32251;BME280;41295;48.518;9.206;2023-12-20T10:37:36;97513.09;;;5.35;76.24
32251;BME280;41295;48.518;9.206;2023-12-20T10:39:39;97501.72;;;5.48;75.68
32251;BME280;41295;48.518;9.206;2023-12-20T10:41:44;97500.78;;;5.56;74.69
32251;BME280;41295;48.518;9.206;2023-12-20T10:43:48;97508.66;;;5.46;73.35
32251;BME280;41295;48.518;9.206;2023-12-20T10:45:50;97498.91;;;5.64;73.28
32251;BME280;41295;48.518;9.206;2023-12-20T10:47:53;97492.09;;;5.58;73.32
32251;BME280;41295;48.518;9.206;2023-12-20T10:49:57;97500.50;;;5.74;71.11
32251;BME280;41295;48.518;9.206;2023-12-20T10:52:00;97492.97;;;5.57;71.99
32251;BME280;41295;48.518;9.206;2023-12-20T10:54:05;97497.28;;;5.57;71.41
32251;BME280;41295;48.518;9.206;2023-12-20T10:56:08;97492.81;;;5.70;71.75
32251;BME280;41295;48.518;9.206;2023-12-20T10:58:12;97494.47;;;5.72;71.35